Alps Wideshine — 9HA2472 — position and weather

sailwx.info

Track history (hours):
 
Tides and Currents Weather Stations Pressure Air Temp Water Temp Dewpoint Dewpoint Depression Visibility Wind Speed Wind Dir Waves Ship Positions

Alps Wideshine

Last reported at 2015-Mar-06 03:06 UTC. Time now 2015-Mar-06 20:12 UTC.
Position N 26°05' W 078°04'.

Length 107 m; draft 5.6 m.

Type: Tanker. MMSI: 248694000.

Date/timePositionNaut miles runAvg speedWind from/ knotsBaromVisibWave heightAir tempDewpointWater temp
2015-Mar-06 03:06N 26°05' W 078°04'2213.3
2015-Mar-06 01:26N 26°13' W 078°27'1112.7
2015-Mar-06 00:34N 26°17' W 078°38'5312.1
2015-Mar-05 20:14N 26°37' W 079°32'7 9.9
2015-Mar-05 19:34N 26°40' W 079°39'2110.3
2015-Mar-05 17:34N 26°46' W 080°01'2 0.0
2015-Mar-04 03:29N 26°46' W 080°03'14 7.4
2015-Mar-04 01:34N 26°35' W 079°53'1313.1
2015-Mar-04 00:34N 26°22' W 079°54'1312.8
2015-Mar-03 23:33N 26°09' W 079°55'1313.1
2015-Mar-03 22:33N 25°56' W 079°56'  
Track history (hours):
 
Tides and Currents Weather Stations Pressure Air Temp Water Temp Dewpoint Dewpoint Depression Visibility Wind Speed Wind Dir Waves Ship Positions

Alps Wideshine

Last reported at 2015-Mar-06 03:06 UTC. Time now 2015-Mar-06 20:12 UTC.
Position N 26°05' W 078°04'.

Length 107 m; draft 5.6 m.

Type: Tanker. MMSI: 248694000.

Date/timePositionNaut miles runAvg speedWind from/ knotsBaromVisibWave heightAir tempDewpointWater temp
2015-Mar-06 03:06N 26°05' W 078°04'2213.3
2015-Mar-06 01:26N 26°13' W 078°27'1112.7
2015-Mar-06 00:34N 26°17' W 078°38'5312.1
2015-Mar-05 20:14N 26°37' W 079°32'7 9.9
2015-Mar-05 19:34N 26°40' W 079°39'2110.3
2015-Mar-05 17:34N 26°46' W 080°01'2 0.0
2015-Mar-04 03:29N 26°46' W 080°03'14 7.4
2015-Mar-04 01:34N 26°35' W 079°53'1313.1
2015-Mar-04 00:34N 26°22' W 079°54'1312.8
2015-Mar-03 23:33N 26°09' W 079°55'1313.1
2015-Mar-03 22:33N 25°56' W 079°56'  

Dump ship's entire track history